sensor_id;sensor_type;location;lat;lon;timestamp;pressure;altitude;pressure_sealevel;temperature;humidity
11413;BME280;5762;43.256;26.960;2023-02-21T00:00:39;99620.67;;;9.29;100.00
11413;BME280;5762;43.256;26.960;2023-02-21T00:03:24;99613.59;;;9.33;100.00
11413;BME280;5762;43.256;26.960;2023-02-21T00:06:09;99610.90;;;9.33;100.00
11413;BME280;5762;43.256;26.960;2023-02-21T00:08:55;99607.36;;;9.35;100.00
11413;BME280;5762;43.256;26.960;2023-02-21T00:11:42;99607.30;;;9.38;100.00
11413;BME280;5762;43.256;26.960;2023-02-21T00:14:27;99593.50;;;9.39;100.00
11413;BME280;5762;43.256;26.960;2023-02-21T00:17:12;99596.13;;;9.45;100.00
11413;BME280;5762;43.256;26.960;2023-02-21T00:19:58;99587.94;;;9.33;100.00
11413;BME280;5762;43.256;26.960;2023-02-21T00:22:44;99559.58;;;9.50;100.00
11413;BME280;5762;43.256;26.960;2023-02-21T00:25:29;99554.98;;;9.50;100.00
11413;BME280;5762;43.256;26.960;2023-02-21T00:28:14;99562.75;;;9.54;100.00
11413;BME280;5762;43.256;26.960;2023-02-21T00:30:58;99558.87;;;9.60;100.00
11413;BME280;5762;43.256;26.960;2023-02-21T00:33:43;99552.02;;;9.49;100.00
11413;BME280;5762;43.256;26.960;2023-02-21T00:36:29;99539.78;;;9.54;100.00
11413;BME280;5762;43.256;26.960;2023-02-21T00:39:14;99543.08;;;9.51;100.00
11413;BME280;5762;43.256;26.960;2023-02-21T00:41:59;99531.47;;;9.51;100.00
11413;BME280;5762;43.256;26.960;2023-02-21T00:44:45;99536.41;;;9.46;100.00
11413;BME280;5762;43.256;26.960;2023-02-21T00:47:30;99556.37;;;9.48;100.00
11413;BME280;5762;43.256;26.960;2023-02-21T00:50:16;99523.88;;;9.53;100.00
11413;BME280;5762;43.256;26.960;2023-02-21T00:53:00;99534.76;;;9.48;100.00
11413;BME280;5762;43.256;26.960;2023-02-21T00:55:45;99529.69;;;9.44;100.00
11413;BME280;5762;43.256;26.960;2023-02-21T00:58:30;99546.08;;;9.33;100.00
11413;BME280;5762;43.256;26.960;2023-02-21T01:01:15;99544.55;;;9.44;100.00
11413;BME280;5762;43.256;26.960;2023-02-21T01:04:01;99539.40;;;9.45;100.00
11413;BME280;5762;43.256;26.960;2023-02-21T01:06:45;99520.03;;;9.56;100.00
11413;BME280;5762;43.256;26.960;2023-02-21T01:09:31;99518.68;;;9.56;100.00
11413;BME280;5762;43.256;26.960;2023-02-21T01:12:17;99524.76;;;9.64;100.00
11413;BME280;5762;43.256;26.960;2023-02-21T01:15:02;99523.53;;;9.87;100.00
11413;BME280;5762;43.256;26.960;2023-02-21T01:17:47;99523.07;;;9.82;100.00
11413;BME280;5762;43.256;26.960;2023-02-21T01:20:32;99505.80;;;9.81;100.00
11413;BME280;5762;43.256;26.960;2023-02-21T01:23:16;99511.92;;;9.86;100.00
11413;BME280;5762;43.256;26.960;2023-02-21T01:26:02;99510.22;;;9.90;100.00
11413;BME280;5762;43.256;26.960;2023-02-21T01:28:47;99494.26;;;9.91;100.00
11413;BME280;5762;43.256;26.960;2023-02-21T01:31:32;99492.97;;;10.02;100.00
11413;BME280;5762;43.256;26.960;2023-02-21T01:34:17;99483.23;;;10.15;100.00
11413;BME280;5762;43.256;26.960;2023-02-21T01:37:01;99487.23;;;10.18;100.00
11413;BME280;5762;43.256;26.960;2023-02-21T01:39:46;99480.48;;;10.18;100.00
11413;BME280;5762;43.256;26.960;2023-02-21T01:42:31;99463.05;;;10.10;100.00
11413;BME280;5762;43.256;26.960;2023-02-21T01:48:06;99473.16;;;10.18;100.00
11413;BME280;5762;43.256;26.960;2023-02-21T01:50:52;99462.42;;;10.29;100.00
11413;BME280;5762;43.256;26.960;2023-02-21T01:53:37;99475.00;;;10.23;100.00
11413;BME280;5762;43.256;26.960;2023-02-21T01:56:22;99449.45;;;10.29;100.00
11413;BME280;5762;43.256;26.960;2023-02-21T01:59:08;99475.49;;;10.38;100.00
11413;BME280;5762;43.256;26.960;2023-02-21T02:02:03;99490.03;;;10.29;100.00
11413;BME280;5762;43.256;26.960;2023-02-21T02:04:39;99463.62;;;10.48;100.00
11413;BME280;5762;43.256;26.960;2023-02-21T02:07:24;99457.97;;;10.47;100.00
11413;BME280;5762;43.256;26.960;2023-02-21T02:10:09;99470.50;;;10.43;100.00
11413;BME280;5762;43.256;26.960;2023-02-21T02:42:04;99455.50;;;10.84;100.00
11413;BME280;5762;43.256;26.960;2023-02-21T02:44:34;99466.87;;;10.84;100.00
11413;BME280;5762;43.256;26.960;2023-02-21T02:47:00;99481.69;;;10.75;100.00
11413;BME280;5762;43.256;26.960;2023-02-21T02:49:30;99468.55;;;10.71;100.00
11413;BME280;5762;43.256;26.960;2023-02-21T02:52:03;99466.89;;;10.72;100.00
11413;BME280;5762;43.256;26.960;2023-02-21T02:54:31;99478.93;;;10.66;100.00
11413;BME280;5762;43.256;26.960;2023-02-21T02:57:00;99481.20;;;10.62;100.00
11413;BME280;5762;43.256;26.960;2023-02-21T02:59:29;99494.56;;;10.69;100.00
11413;BME280;5762;43.256;26.960;2023-02-21T03:02:05;99474.08;;;10.66;100.00
11413;BME280;5762;43.256;26.960;2023-02-21T03:12:31;99493.07;;;10.74;100.00
11413;BME280;5762;43.256;26.960;2023-02-21T03:14:59;99488.41;;;10.78;100.00
11413;BME280;5762;43.256;26.960;2023-02-21T03:17:27;99489.59;;;10.85;100.00
11413;BME280;5762;43.256;26.960;2023-02-21T03:19:57;99480.30;;;10.89;100.00
11413;BME280;5762;43.256;26.960;2023-02-21T03:22:26;99481.96;;;10.87;100.00
11413;BME280;5762;43.256;26.960;2023-02-21T03:24:55;99476.73;;;10.91;100.00
11413;BME280;5762;43.256;26.960;2023-02-21T03:27:25;99483.81;;;10.89;100.00
11413;BME280;5762;43.256;26.960;2023-02-21T03:29:55;99485.66;;;10.91;100.00
11413;BME280;5762;43.256;26.960;2023-02-21T03:32:39;99479.39;;;10.93;100.00
11413;BME280;5762;43.256;26.960;2023-02-21T03:35:07;99494.59;;;10.92;100.00
11413;BME280;5762;43.256;26.960;2023-02-21T03:37:37;99477.78;;;10.92;100.00
11413;BME280;5762;43.256;26.960;2023-02-21T03:40:07;99474.72;;;10.96;100.00
11413;BME280;5762;43.256;26.960;2023-02-21T03:42:35;99481.60;;;10.91;100.00
11413;BME280;5762;43.256;26.960;2023-02-21T03:45:03;99482.16;;;10.91;100.00
11413;BME280;5762;43.256;26.960;2023-02-21T03:47:31;99475.00;;;10.84;100.00
11413;BME280;5762;43.256;26.960;2023-02-21T03:50:00;99470.58;;;10.88;100.00
11413;BME280;5762;43.256;26.960;2023-02-21T03:52:28;99470.52;;;10.90;100.00
11413;BME280;5762;43.256;26.960;2023-02-21T03:54:56;99476.13;;;10.94;100.00
11413;BME280;5762;43.256;26.960;2023-02-21T03:57:25;99468.99;;;10.98;100.00
11413;BME280;5762;43.256;26.960;2023-02-21T03:59:53;99471.15;;;10.98;100.00
11413;BME280;5762;43.256;26.960;2023-02-21T04:02:22;99473.61;;;10.97;100.00
11413;BME280;5762;43.256;26.960;2023-02-21T04:04:50;99463.70;;;10.93;100.00
11413;BME280;5762;43.256;26.960;2023-02-21T04:07:19;99463.95;;;11.05;100.00
11413;BME280;5762;43.256;26.960;2023-02-21T04:09:48;99466.97;;;11.03;100.00
11413;BME280;5762;43.256;26.960;2023-02-21T04:12:16;99456.20;;;11.01;100.00
11413;BME280;5762;43.256;26.960;2023-02-21T04:14:44;99458.66;;;11.00;100.00
11413;BME280;5762;43.256;26.960;2023-02-21T04:17:13;99452.13;;;11.01;100.00
11413;BME280;5762;43.256;26.960;2023-02-21T04:19:42;99451.27;;;10.92;100.00
11413;BME280;5762;43.256;26.960;2023-02-21T04:22:10;99450.52;;;10.89;100.00
11413;BME280;5762;43.256;26.960;2023-02-21T04:24:39;99446.77;;;10.87;100.00
11413;BME280;5762;43.256;26.960;2023-02-21T04:27:08;99433.29;;;10.85;100.00
11413;BME280;5762;43.256;26.960;2023-02-21T04:29:37;99437.97;;;10.82;100.00
11413;BME280;5762;43.256;26.960;2023-02-21T04:32:05;99432.91;;;10.78;100.00
11413;BME280;5762;43.256;26.960;2023-02-21T04:34:34;99426.66;;;10.68;100.00
11413;BME280;5762;43.256;26.960;2023-02-21T04:37:02;99425.22;;;10.60;100.00
11413;BME280;5762;43.256;26.960;2023-02-21T04:39:30;99426.38;;;10.56;100.00
11413;BME280;5762;43.256;26.960;2023-02-21T04:41:59;99417.03;;;10.51;100.00
11413;BME280;5762;43.256;26.960;2023-02-21T04:44:28;99410.95;;;10.57;100.00
11413;BME280;5762;43.256;26.960;2023-02-21T04:46:57;99417.36;;;10.61;100.00
11413;BME280;5762;43.256;26.960;2023-02-21T04:49:25;99425.78;;;10.59;100.00
11413;BME280;5762;43.256;26.960;2023-02-21T04:51:54;99410.03;;;10.61;100.00
11413;BME280;5762;43.256;26.960;2023-02-21T04:54:22;99421.85;;;10.65;100.00
11413;BME280;5762;43.256;26.960;2023-02-21T04:56:50;99409.31;;;10.69;100.00
11413;BME280;5762;43.256;26.960;2023-02-21T04:59:19;99405.10;;;10.74;100.00
11413;BME280;5762;43.256;26.960;2023-02-21T05:01:47;99390.47;;;10.75;100.00
11413;BME280;5762;43.256;26.960;2023-02-21T05:04:15;99397.11;;;10.81;100.00
11413;BME280;5762;43.256;26.960;2023-02-21T05:06:44;99388.56;;;10.87;100.00
11413;BME280;5762;43.256;26.960;2023-02-21T05:09:13;99394.78;;;10.88;100.00
11413;BME280;5762;43.256;26.960;2023-02-21T05:11:42;99401.67;;;10.94;100.00
11413;BME280;5762;43.256;26.960;2023-02-21T05:14:10;99396.25;;;10.94;100.00
11413;BME280;5762;43.256;26.960;2023-02-21T05:16:38;99387.89;;;10.93;100.00
11413;BME280;5762;43.256;26.960;2023-02-21T05:19:12;99395.52;;;10.91;100.00
11413;BME280;5762;43.256;26.960;2023-02-21T05:21:36;99394.97;;;10.91;100.00
11413;BME280;5762;43.256;26.960;2023-02-21T05:24:05;99396.88;;;11.02;100.00
11413;BME280;5762;43.256;26.960;2023-02-21T05:26:35;99395.09;;;11.08;100.00
11413;BME280;5762;43.256;26.960;2023-02-21T05:29:04;99391.23;;;11.09;100.00
11413;BME280;5762;43.256;26.960;2023-02-21T05:31:32;99389.20;;;11.15;100.00
11413;BME280;5762;43.256;26.960;2023-02-21T05:34:01;99387.90;;;11.24;100.00
11413;BME280;5762;43.256;26.960;2023-02-21T05:36:29;99393.13;;;11.31;100.00
11413;BME280;5762;43.256;26.960;2023-02-21T05:38:58;99396.70;;;11.29;100.00
11413;BME280;5762;43.256;26.960;2023-02-21T05:41:27;99400.58;;;11.26;100.00
11413;BME280;5762;43.256;26.960;2023-02-21T05:43:55;99402.05;;;11.32;100.00
11413;BME280;5762;43.256;26.960;2023-02-21T05:46:27;99403.52;;;11.38;100.00
11413;BME280;5762;43.256;26.960;2023-02-21T05:48:56;99399.47;;;11.47;100.00
11413;BME280;5762;43.256;26.960;2023-02-21T05:51:25;99403.09;;;11.53;100.00
11413;BME280;5762;43.256;26.960;2023-02-21T05:53:53;99400.91;;;11.64;100.00
11413;BME280;5762;43.256;26.960;2023-02-21T05:56:22;99410.75;;;11.71;100.00
11413;BME280;5762;43.256;26.960;2023-02-21T05:58:50;99410.89;;;11.77;100.00
11413;BME280;5762;43.256;26.960;2023-02-21T06:01:19;99415.38;;;11.70;100.00
11413;BME280;5762;43.256;26.960;2023-02-21T06:03:47;99409.85;;;11.84;100.00
11413;BME280;5762;43.256;26.960;2023-02-21T06:06:15;99414.95;;;12.05;100.00
11413;BME280;5762;43.256;26.960;2023-02-21T06:08:43;99411.85;;;12.10;100.00
11413;BME280;5762;43.256;26.960;2023-02-21T06:11:12;99414.47;;;12.03;100.00
11413;BME280;5762;43.256;26.960;2023-02-21T06:13:40;99410.81;;;12.08;100.00
11413;BME280;5762;43.256;26.960;2023-02-21T06:16:09;99413.27;;;12.16;100.00
11413;BME280;5762;43.256;26.960;2023-02-21T06:18:37;99405.23;;;12.22;100.00
11413;BME280;5762;43.256;26.960;2023-02-21T06:21:06;99411.64;;;12.34;100.00
11413;BME280;5762;43.256;26.960;2023-02-21T06:23:34;99407.10;;;12.41;100.00
11413;BME280;5762;43.256;26.960;2023-02-21T06:26:03;99403.33;;;12.48;100.00
11413;BME280;5762;43.256;26.960;2023-02-21T06:28:32;99405.19;;;12.41;100.00
11413;BME280;5762;43.256;26.960;2023-02-21T06:31:02;99391.94;;;12.40;100.00
11413;BME280;5762;43.256;26.960;2023-02-21T06:33:30;99396.40;;;12.36;100.00
11413;BME280;5762;43.256;26.960;2023-02-21T06:36:02;99395.03;;;12.27;100.00
11413;BME280;5762;43.256;26.960;2023-02-21T06:38:28;99383.22;;;12.32;100.00
11413;BME280;5762;43.256;26.960;2023-02-21T06:40:56;99389.09;;;12.17;100.00
11413;BME280;5762;43.256;26.960;2023-02-21T06:43:25;99379.05;;;12.17;100.00
11413;BME280;5762;43.256;26.960;2023-02-21T06:45:54;99373.47;;;12.22;100.00
11413;BME280;5762;43.256;26.960;2023-02-21T06:48:22;99367.26;;;12.30;100.00
11413;BME280;5762;43.256;26.960;2023-02-21T06:50:51;99394.17;;;12.47;100.00
11413;BME280;5762;43.256;26.960;2023-02-21T06:53:20;99381.14;;;12.55;100.00
11413;BME280;5762;43.256;26.960;2023-02-21T06:55:48;99394.24;;;12.61;100.00
11413;BME280;5762;43.256;26.960;2023-02-21T06:58:17;99402.06;;;12.63;100.00
11413;BME280;5762;43.256;26.960;2023-02-21T07:00:45;99395.12;;;12.59;100.00
11413;BME280;5762;43.256;26.960;2023-02-21T07:03:14;99389.69;;;12.59;100.00
11413;BME280;5762;43.256;26.960;2023-02-21T07:05:43;99395.12;;;12.59;100.00
11413;BME280;5762;43.256;26.960;2023-02-21T07:08:12;99383.14;;;12.69;100.00
11413;BME280;5762;43.256;26.960;2023-02-21T07:10:40;99386.25;;;12.65;100.00
11413;BME280;5762;43.256;26.960;2023-02-21T07:13:08;99377.55;;;12.74;100.00
11413;BME280;5762;43.256;26.960;2023-02-21T07:15:36;99402.87;;;12.72;100.00
11413;BME280;5762;43.256;26.960;2023-02-21T07:18:05;99383.52;;;12.82;100.00
11413;BME280;5762;43.256;26.960;2023-02-21T07:20:34;99364.50;;;12.82;100.00
11413;BME280;5762;43.256;26.960;2023-02-21T07:23:02;99368.64;;;12.88;100.00
11413;BME280;5762;43.256;26.960;2023-02-21T07:25:31;99369.75;;;13.04;100.00
11413;BME280;5762;43.256;26.960;2023-02-21T07:28:00;99367.02;;;13.13;100.00
11413;BME280;5762;43.256;26.960;2023-02-21T07:30:29;99366.11;;;13.24;100.00
11413;BME280;5762;43.256;26.960;2023-02-21T07:32:58;99361.95;;;13.26;100.00
11413;BME280;5762;43.256;26.960;2023-02-21T07:35:26;99338.59;;;13.34;99.25
11413;BME280;5762;43.256;26.960;2023-02-21T07:37:55;99308.98;;;13.41;98.43
11413;BME280;5762;43.256;26.960;2023-02-21T07:40:23;99343.96;;;13.51;98.38
11413;BME280;5762;43.256;26.960;2023-02-21T07:42:51;99327.02;;;13.60;96.73
11413;BME280;5762;43.256;26.960;2023-02-21T07:45:20;99337.80;;;13.63;95.60
11413;BME280;5762;43.256;26.960;2023-02-21T07:47:48;99331.44;;;13.73;94.73
11413;BME280;5762;43.256;26.960;2023-02-21T07:50:17;99363.38;;;13.85;92.71
11413;BME280;5762;43.256;26.960;2023-02-21T07:52:45;99338.67;;;13.90;91.66
11413;BME280;5762;43.256;26.960;2023-02-21T07:55:14;99318.55;;;13.97;90.46
11413;BME280;5762;43.256;26.960;2023-02-21T07:57:43;99312.78;;;13.99;90.12
11413;BME280;5762;43.256;26.960;2023-02-21T08:00:12;99314.75;;;14.04;89.45
11413;BME280;5762;43.256;26.960;2023-02-21T08:02:41;99338.20;;;14.24;88.86
11413;BME280;5762;43.256;26.960;2023-02-21T08:05:10;99320.91;;;14.34;87.45
11413;BME280;5762;43.256;26.960;2023-02-21T08:07:38;99325.79;;;14.35;86.62
11413;BME280;5762;43.256;26.960;2023-02-21T08:10:07;99318.38;;;14.44;85.87
11413;BME280;5762;43.256;26.960;2023-02-21T08:12:36;99335.64;;;14.48;85.73
11413;BME280;5762;43.256;26.960;2023-02-21T08:15:05;99340.98;;;14.57;84.23
11413;BME280;5762;43.256;26.960;2023-02-21T08:17:34;99316.05;;;14.55;83.24
11413;BME280;5762;43.256;26.960;2023-02-21T08:20:03;99309.78;;;14.48;83.55
11413;BME280;5762;43.256;26.960;2023-02-21T08:22:31;99312.50;;;14.48;83.58
11413;BME280;5762;43.256;26.960;2023-02-21T08:24:59;99306.28;;;14.54;83.28
11413;BME280;5762;43.256;26.960;2023-02-21T08:27:28;99297.67;;;14.64;82.42
11413;BME280;5762;43.256;26.960;2023-02-21T08:29:57;99288.84;;;14.67;81.46
11413;BME280;5762;43.256;26.960;2023-02-21T08:32:25;99277.52;;;14.77;80.89
11413;BME280;5762;43.256;26.960;2023-02-21T08:34:53;99275.84;;;14.85;80.55
11413;BME280;5762;43.256;26.960;2023-02-21T08:37:22;99263.45;;;14.93;79.72
11413;BME280;5762;43.256;26.960;2023-02-21T08:39:50;99184.78;;;14.98;78.59
11413;BME280;5762;43.256;26.960;2023-02-21T08:42:19;99256.31;;;15.01;78.51
11413;BME280;5762;43.256;26.960;2023-02-21T08:44:47;99262.91;;;15.00;77.79
11413;BME280;5762;43.256;26.960;2023-02-21T08:47:18;99207.27;;;15.07;77.01
11413;BME280;5762;43.256;26.960;2023-02-21T08:49:47;99221.93;;;15.15;76.36
11413;BME280;5762;43.256;26.960;2023-02-21T08:52:15;99206.71;;;15.20;75.25
11413;BME280;5762;43.256;26.960;2023-02-21T08:54:44;99203.30;;;15.23;74.84
11413;BME280;5762;43.256;26.960;2023-02-21T08:57:12;99190.33;;;15.26;74.05
11413;BME280;5762;43.256;26.960;2023-02-21T08:59:41;99212.70;;;15.31;73.60
11413;BME280;5762;43.256;26.960;2023-02-21T09:02:17;99200.43;;;15.37;72.69
11413;BME280;5762;43.256;26.960;2023-02-21T09:04:45;99164.30;;;15.40;72.14
11413;BME280;5762;43.256;26.960;2023-02-21T09:07:14;99189.28;;;15.49;72.22
11413;BME280;5762;43.256;26.960;2023-02-21T09:09:43;99192.71;;;15.58;71.48
11413;BME280;5762;43.256;26.960;2023-02-21T09:12:11;99211.46;;;15.59;70.61
11413;BME280;5762;43.256;26.960;2023-02-21T09:14:40;99140.05;;;15.63;69.85
11413;BME280;5762;43.256;26.960;2023-02-21T09:17:09;99144.94;;;15.64;68.90
11413;BME280;5762;43.256;26.960;2023-02-21T09:19:38;99189.83;;;15.66;68.21
11413;BME280;5762;43.256;26.960;2023-02-21T09:22:07;99195.61;;;15.71;67.44
11413;BME280;5762;43.256;26.960;2023-02-21T09:24:36;99173.33;;;15.75;66.19
11413;BME280;5762;43.256;26.960;2023-02-21T09:27:05;99195.38;;;15.76;66.07
11413;BME280;5762;43.256;26.960;2023-02-21T09:29:33;99201.39;;;15.82;65.63
11413;BME280;5762;43.256;26.960;2023-02-21T09:32:02;99215.14;;;15.85;65.16
11413;BME280;5762;43.256;26.960;2023-02-21T09:34:31;99231.27;;;15.90;64.84
11413;BME280;5762;43.256;26.960;2023-02-21T09:37:03;99242.82;;;15.99;64.14
11413;BME280;5762;43.256;26.960;2023-02-21T09:39:29;99243.25;;;16.07;63.90
11413;BME280;5762;43.256;26.960;2023-02-21T09:41:57;99233.91;;;16.15;63.29
11413;BME280;5762;43.256;26.960;2023-02-21T09:44:26;99230.41;;;16.30;63.00
11413;BME280;5762;43.256;26.960;2023-02-21T09:47:00;99227.43;;;16.35;62.77
11413;BME280;5762;43.256;26.960;2023-02-21T09:49:27;99212.48;;;16.45;61.22
11413;BME280;5762;43.256;26.960;2023-02-21T09:51:55;99230.53;;;16.55;59.97
11413;BME280;5762;43.256;26.960;2023-02-21T09:54:32;99235.67;;;16.72;58.64
11413;BME280;5762;43.256;26.960;2023-02-21T09:56:57;99216.73;;;16.80;57.64
11413;BME280;5762;43.256;26.960;2023-02-21T09:59:26;99227.15;;;16.90;56.71
11413;BME280;5762;43.256;26.960;2023-02-21T10:02:01;99218.58;;;17.07;56.31
11413;BME280;5762;43.256;26.960;2023-02-21T10:07:07;99235.07;;;17.36;53.35
11413;BME280;5762;43.256;26.960;2023-02-21T10:20:10;99223.64;;;17.30;51.88
11413;BME280;5762;43.256;26.960;2023-02-21T10:22:36;99182.17;;;17.28;51.49
11413;BME280;5762;43.256;26.960;2023-02-21T10:25:25;99196.56;;;17.35;51.20
11413;BME280;5762;43.256;26.960;2023-02-21T10:27:38;99209.96;;;17.40;50.98
11413;BME280;5762;43.256;26.960;2023-02-21T10:30:07;99175.91;;;17.37;51.17
11413;BME280;5762;43.256;26.960;2023-02-21T10:32:36;99191.47;;;17.43;51.05
11413;BME280;5762;43.256;26.960;2023-02-21T10:35:04;99197.52;;;17.42;51.31
11413;BME280;5762;43.256;26.960;2023-02-21T10:37:40;99184.98;;;17.41;51.07
11413;BME280;5762;43.256;26.960;2023-02-21T10:40:19;99192.34;;;17.47;50.48
11413;BME280;5762;43.256;26.960;2023-02-21T10:42:48;99183.07;;;17.52;49.67
11413;BME280;5762;43.256;26.960;2023-02-21T10:45:17;99177.97;;;17.60;48.79
11413;BME280;5762;43.256;26.960;2023-02-21T10:47:59;99180.11;;;17.66;47.90
11413;BME280;5762;43.256;26.960;2023-02-21T10:53:06;99194.56;;;17.77;47.16
11413;BME280;5762;43.256;26.960;2023-02-21T10:55:34;99205.23;;;17.82;47.29
11413;BME280;5762;43.256;26.960;2023-02-21T10:58:07;99199.55;;;17.90;46.90
11413;BME280;5762;43.256;26.960;2023-02-21T11:00:36;99189.69;;;17.95;46.49
11413;BME280;5762;43.256;26.960;2023-02-21T11:05:49;99189.02;;;18.12;45.87
11413;BME280;5762;43.256;26.960;2023-02-21T11:11:06;99173.59;;;18.23;44.44
11413;BME280;5762;43.256;26.960;2023-02-21T11:13:34;99152.53;;;18.27;44.45
11413;BME280;5762;43.256;26.960;2023-02-21T11:16:11;99164.56;;;18.32;44.44
11413;BME280;5762;43.256;26.960;2023-02-21T11:18:35;99173.90;;;18.40;44.55
11413;BME280;5762;43.256;26.960;2023-02-21T11:23:44;99148.28;;;18.52;43.50
11413;BME280;5762;43.256;26.960;2023-02-21T11:26:12;99137.53;;;18.53;42.50
11413;BME280;5762;43.256;26.960;2023-02-21T11:28:42;99145.75;;;18.63;42.71
11413;BME280;5762;43.256;26.960;2023-02-21T11:31:21;99125.09;;;19.08;42.11
11413;BME280;5762;43.256;26.960;2023-02-21T11:33:47;99095.70;;;19.35;41.18
11413;BME280;5762;43.256;26.960;2023-02-21T11:36:15;99123.56;;;19.37;41.24
11413;BME280;5762;43.256;26.960;2023-02-21T11:38:43;99130.72;;;19.59;40.88
11413;BME280;5762;43.256;26.960;2023-02-21T11:41:22;99114.66;;;19.48;40.46
11413;BME280;5762;43.256;26.960;2023-02-21T11:43:53;99113.20;;;19.54;40.74
11413;BME280;5762;43.256;26.960;2023-02-21T11:51:42;99085.95;;;19.88;39.67
11413;BME280;5762;43.256;26.960;2023-02-21T11:54:10;99091.90;;;19.94;39.59
11413;BME280;5762;43.256;26.960;2023-02-21T12:01:58;99092.05;;;19.71;39.46
11413;BME280;5762;43.256;26.960;2023-02-21T12:04:32;99070.03;;;19.51;39.62
11413;BME280;5762;43.256;26.960;2023-02-21T12:07:20;99103.47;;;19.47;39.98
11413;BME280;5762;43.256;26.960;2023-02-21T12:12:36;99121.72;;;19.19;40.87
11413;BME280;5762;43.256;26.960;2023-02-21T12:20:24;99124.67;;;19.33;41.24
11413;BME280;5762;43.256;26.960;2023-02-21T12:33:18;99116.63;;;18.91;41.65
11413;BME280;5762;43.256;26.960;2023-02-21T12:38:36;99074.34;;;18.56;41.96
11413;BME280;5762;43.256;26.960;2023-02-21T12:51:40;99063.94;;;18.29;43.32
11413;BME280;5762;43.256;26.960;2023-02-21T12:54:05;99051.52;;;18.48;43.10
11413;BME280;5762;43.256;26.960;2023-02-21T12:56:39;99054.00;;;18.57;43.01
11413;BME280;5762;43.256;26.960;2023-02-21T13:06:56;99052.25;;;18.45;43.06
11413;BME280;5762;43.256;26.960;2023-02-21T13:09:33;99058.73;;;18.47;43.11
11413;BME280;5762;43.256;26.960;2023-02-21T13:12:03;99056.78;;;18.47;42.74
11413;BME280;5762;43.256;26.960;2023-02-21T13:14:35;99045.45;;;18.49;42.25
11413;BME280;5762;43.256;26.960;2023-02-21T13:17:02;99004.66;;;18.43;41.79
11413;BME280;5762;43.256;26.960;2023-02-21T13:19:34;99061.41;;;18.43;41.66
11413;BME280;5762;43.256;26.960;2023-02-21T13:22:07;99042.02;;;18.29;41.67
11413;BME280;5762;43.256;26.960;2023-02-21T13:24:54;99032.52;;;18.23;41.87
11413;BME280;5762;43.256;26.960;2023-02-21T13:32:36;99042.54;;;18.38;42.20
11413;BME280;5762;43.256;26.960;2023-02-21T13:35:04;99013.27;;;18.55;41.87
11413;BME280;5762;43.256;26.960;2023-02-21T13:37:33;99036.91;;;18.63;41.61
11413;BME280;5762;43.256;26.960;2023-02-21T13:40:15;99032.78;;;18.77;41.54
11413;BME280;5762;43.256;26.960;2023-02-21T13:42:33;99037.52;;;18.80;41.48
11413;BME280;5762;43.256;26.960;2023-02-21T13:55:36;99021.59;;;19.02;41.90
11413;BME280;5762;43.256;26.960;2023-02-21T14:08:26;99035.89;;;19.18;42.35
11413;BME280;5762;43.256;26.960;2023-02-21T14:10:47;99041.27;;;19.24;42.18
11413;BME280;5762;43.256;26.960;2023-02-21T14:13:18;99038.56;;;19.28;42.11
11413;BME280;5762;43.256;26.960;2023-02-21T14:15:46;99033.83;;;19.25;42.49
11413;BME280;5762;43.256;26.960;2023-02-21T14:18:31;99040.73;;;19.28;42.40
11413;BME280;5762;43.256;26.960;2023-02-21T14:20:55;99034.84;;;19.13;42.91
11413;BME280;5762;43.256;26.960;2023-02-21T14:23:30;99020.64;;;19.04;43.26
11413;BME280;5762;43.256;26.960;2023-02-21T14:25:58;99038.10;;;19.05;43.42
11413;BME280;5762;43.256;26.960;2023-02-21T14:31:12;99057.20;;;18.85;44.03
11413;BME280;5762;43.256;26.960;2023-02-21T14:33:41;99056.41;;;18.85;44.17
11413;BME280;5762;43.256;26.960;2023-02-21T14:36:09;99055.34;;;18.80;44.23
11413;BME280;5762;43.256;26.960;2023-02-21T14:38:40;99056.72;;;18.80;44.43
11413;BME280;5762;43.256;26.960;2023-02-21T14:46:20;99062.67;;;18.85;44.62
11413;BME280;5762;43.256;26.960;2023-02-21T14:56:32;99033.23;;;18.56;44.82
11413;BME280;5762;43.256;26.960;2023-02-21T14:59:14;99057.53;;;18.57;44.71
11413;BME280;5762;43.256;26.960;2023-02-21T15:06:56;99077.88;;;18.56;44.26
11413;BME280;5762;43.256;26.960;2023-02-21T15:09:20;99084.23;;;18.73;44.43
11413;BME280;5762;43.256;26.960;2023-02-21T15:11:48;99084.45;;;18.61;43.80
11413;BME280;5762;43.256;26.960;2023-02-21T15:14:21;99094.89;;;18.65;43.83
11413;BME280;5762;43.256;26.960;2023-02-21T15:16:51;99094.59;;;18.70;43.75
11413;BME280;5762;43.256;26.960;2023-02-21T15:19:24;99079.45;;;18.67;43.79
11413;BME280;5762;43.256;26.960;2023-02-21T15:21:48;99091.00;;;18.57;44.19
11413;BME280;5762;43.256;26.960;2023-02-21T15:24:17;99090.79;;;18.56;44.17
11413;BME280;5762;43.256;26.960;2023-02-21T15:26:46;99086.95;;;18.37;44.59
11413;BME280;5762;43.256;26.960;2023-02-21T15:29:15;99077.14;;;18.23;45.35
11413;BME280;5762;43.256;26.960;2023-02-21T15:32:03;99092.87;;;18.17;45.22
11413;BME280;5762;43.256;26.960;2023-02-21T15:34:21;99101.81;;;18.14;45.38
11413;BME280;5762;43.256;26.960;2023-02-21T15:37:03;99103.37;;;18.01;45.79
11413;BME280;5762;43.256;26.960;2023-02-21T15:39:32;99106.19;;;17.95;45.83
11413;BME280;5762;43.256;26.960;2023-02-21T15:42:01;99094.59;;;17.92;46.31
11413;BME280;5762;43.256;26.960;2023-02-21T15:44:30;99098.48;;;17.82;46.56
11413;BME280;5762;43.256;26.960;2023-02-21T15:47:01;99100.50;;;17.75;46.85
11413;BME280;5762;43.256;26.960;2023-02-21T15:49:33;99094.59;;;17.63;47.42
11413;BME280;5762;43.256;26.960;2023-02-21T15:52:01;99087.09;;;17.51;47.47
11413;BME280;5762;43.256;26.960;2023-02-21T15:54:31;99096.73;;;17.45;47.45
11413;BME280;5762;43.256;26.960;2023-02-21T15:57:00;99093.36;;;17.32;48.15
11413;BME280;5762;43.256;26.960;2023-02-21T15:59:28;99100.70;;;17.28;47.66